sensor_id;sensor_type;location;lat;lon;timestamp;temperature;humidity
43997;DHT22;34318;45.818;15.964;2022-09-09T00:01:39;25.60;80.00
43997;DHT22;34318;45.818;15.964;2022-09-09T00:04:48;25.70;79.20
43997;DHT22;34318;45.818;15.964;2022-09-09T00:09:40;25.40;81.30
43997;DHT22;34318;45.818;15.964;2022-09-09T00:18:24;25.60;80.80
43997;DHT22;34318;45.818;15.964;2022-09-09T00:21:11;25.70;79.80
43997;DHT22;34318;45.818;15.964;2022-09-09T00:23:42;25.50;80.60
43997;DHT22;34318;45.818;15.964;2022-09-09T00:29:02;25.50;81.20
43997;DHT22;34318;45.818;15.964;2022-09-09T00:31:31;25.50;81.00
43997;DHT22;34318;45.818;15.964;2022-09-09T00:34:16;25.40;81.80
43997;DHT22;34318;45.818;15.964;2022-09-09T00:36:45;25.30;82.20
43997;DHT22;34318;45.818;15.964;2022-09-09T00:39:42;25.30;82.40
43997;DHT22;34318;45.818;15.964;2022-09-09T00:42:18;25.50;80.90
43997;DHT22;34318;45.818;15.964;2022-09-09T00:45:04;25.40;81.50
43997;DHT22;34318;45.818;15.964;2022-09-09T00:53:38;25.50;81.20
43997;DHT22;34318;45.818;15.964;2022-09-09T00:58:32;25.50;80.70
43997;DHT22;34318;45.818;15.964;2022-09-09T01:01:09;25.60;80.20
43997;DHT22;34318;45.818;15.964;2022-09-09T01:03:52;25.60;80.60
43997;DHT22;34318;45.818;15.964;2022-09-09T01:09:21;25.20;82.30
43997;DHT22;34318;45.818;15.964;2022-09-09T01:12:14;25.20;82.30
43997;DHT22;34318;45.818;15.964;2022-09-09T01:14:48;25.30;82.20
43997;DHT22;34318;45.818;15.964;2022-09-09T01:23:17;25.40;81.40
43997;DHT22;34318;45.818;15.964;2022-09-09T01:26:20;25.60;80.10
43997;DHT22;34318;45.818;15.964;2022-09-09T01:28:52;25.40;81.30
43997;DHT22;34318;45.818;15.964;2022-09-09T01:31:41;25.40;81.90
43997;DHT22;34318;45.818;15.964;2022-09-09T01:34:14;25.50;80.60
43997;DHT22;34318;45.818;15.964;2022-09-09T01:36:59;25.30;82.10
43997;DHT22;34318;45.818;15.964;2022-09-09T01:39:29;25.40;81.90
43997;DHT22;34318;45.818;15.964;2022-09-09T01:41:56;25.20;82.70
43997;DHT22;34318;45.818;15.964;2022-09-09T01:44:24;25.10;83.30
43997;DHT22;34318;45.818;15.964;2022-09-09T01:46:53;25.10;83.50
43997;DHT22;34318;45.818;15.964;2022-09-09T01:49:20;25.10;83.70
43997;DHT22;34318;45.818;15.964;2022-09-09T01:51:50;25.40;81.80
43997;DHT22;34318;45.818;15.964;2022-09-09T01:54:22;25.50;80.90
43997;DHT22;34318;45.818;15.964;2022-09-09T01:57:08;25.50;80.80
43997;DHT22;34318;45.818;15.964;2022-09-09T02:08:23;25.40;81.90
43997;DHT22;34318;45.818;15.964;2022-09-09T02:11:06;25.50;81.10
43997;DHT22;34318;45.818;15.964;2022-09-09T02:13:37;25.40;81.30
43997;DHT22;34318;45.818;15.964;2022-09-09T02:16:26;25.20;82.80
43997;DHT22;34318;45.818;15.964;2022-09-09T02:19:10;25.10;83.60
43997;DHT22;34318;45.818;15.964;2022-09-09T02:21:42;25.10;83.90
43997;DHT22;34318;45.818;15.964;2022-09-09T02:24:11;25.30;82.30
43997;DHT22;34318;45.818;15.964;2022-09-09T02:26:42;25.30;82.40
43997;DHT22;34318;45.818;15.964;2022-09-09T02:29:30;25.10;83.40
43997;DHT22;34318;45.818;15.964;2022-09-09T02:32:01;25.20;83.20
43997;DHT22;34318;45.818;15.964;2022-09-09T02:34:30;25.10;83.40
43997;DHT22;34318;45.818;15.964;2022-09-09T02:36:59;25.20;83.30
43997;DHT22;34318;45.818;15.964;2022-09-09T02:39:27;25.20;82.80
43997;DHT22;34318;45.818;15.964;2022-09-09T02:41:53;25.40;81.80
43997;DHT22;34318;45.818;15.964;2022-09-09T02:44:20;25.30;82.20
43997;DHT22;34318;45.818;15.964;2022-09-09T02:52:04;25.20;82.60
43997;DHT22;34318;45.818;15.964;2022-09-09T02:54:37;25.10;82.90
43997;DHT22;34318;45.818;15.964;2022-09-09T02:57:25;25.10;84.30
43997;DHT22;34318;45.818;15.964;2022-09-09T02:59:57;25.00;83.80
43997;DHT22;34318;45.818;15.964;2022-09-09T03:02:25;25.00;83.70
43997;DHT22;34318;45.818;15.964;2022-09-09T03:04:52;25.00;83.70
43997;DHT22;34318;45.818;15.964;2022-09-09T03:07:19;25.10;82.90
43997;DHT22;34318;45.818;15.964;2022-09-09T03:09:46;25.20;82.60
43997;DHT22;34318;45.818;15.964;2022-09-09T03:12:13;25.20;82.40
43997;DHT22;34318;45.818;15.964;2022-09-09T03:14:40;25.10;82.50
43997;DHT22;34318;45.818;15.964;2022-09-09T03:17:07;25.20;82.20
43997;DHT22;34318;45.818;15.964;2022-09-09T03:19:36;25.30;81.30
43997;DHT22;34318;45.818;15.964;2022-09-09T03:22:04;25.20;81.70
43997;DHT22;34318;45.818;15.964;2022-09-09T03:24:31;25.10;81.80
43997;DHT22;34318;45.818;15.964;2022-09-09T03:26:57;25.00;82.00
43997;DHT22;34318;45.818;15.964;2022-09-09T03:29:24;25.10;81.70
43997;DHT22;34318;45.818;15.964;2022-09-09T03:31:51;25.20;80.90
43997;DHT22;34318;45.818;15.964;2022-09-09T03:34:18;25.20;81.00
43997;DHT22;34318;45.818;15.964;2022-09-09T03:36:45;25.20;80.90
43997;DHT22;34318;45.818;15.964;2022-09-09T03:39:13;25.20;80.60
43997;DHT22;34318;45.818;15.964;2022-09-09T03:41:41;25.20;80.30
43997;DHT22;34318;45.818;15.964;2022-09-09T03:44:07;25.20;80.30
43997;DHT22;34318;45.818;15.964;2022-09-09T03:46:34;25.20;80.30
43997;DHT22;34318;45.818;15.964;2022-09-09T03:49:01;25.20;80.30
43997;DHT22;34318;45.818;15.964;2022-09-09T03:51:28;25.20;80.40
43997;DHT22;34318;45.818;15.964;2022-09-09T03:53:55;25.30;79.60
43997;DHT22;34318;45.818;15.964;2022-09-09T03:56:24;25.20;80.10
43997;DHT22;34318;45.818;15.964;2022-09-09T03:58:51;25.10;80.70
43997;DHT22;34318;45.818;15.964;2022-09-09T04:01:18;25.00;81.00
43997;DHT22;34318;45.818;15.964;2022-09-09T04:03:45;24.90;81.70
43997;DHT22;34318;45.818;15.964;2022-09-09T04:06:12;24.90;82.10
43997;DHT22;34318;45.818;15.964;2022-09-09T04:08:41;24.90;81.60
43997;DHT22;34318;45.818;15.964;2022-09-09T04:11:08;25.00;81.50
43997;DHT22;34318;45.818;15.964;2022-09-09T04:13:37;24.90;81.90
43997;DHT22;34318;45.818;15.964;2022-09-09T04:16:06;24.90;81.70
43997;DHT22;34318;45.818;15.964;2022-09-09T04:18:33;25.00;81.50
43997;DHT22;34318;45.818;15.964;2022-09-09T04:21:03;25.10;80.30
43997;DHT22;34318;45.818;15.964;2022-09-09T04:23:31;25.00;80.70
43997;DHT22;34318;45.818;15.964;2022-09-09T04:25:58;25.00;80.60
43997;DHT22;34318;45.818;15.964;2022-09-09T04:28:28;25.00;80.90
43997;DHT22;34318;45.818;15.964;2022-09-09T04:30:56;25.10;80.50
43997;DHT22;34318;45.818;15.964;2022-09-09T04:33:24;25.00;80.50
43997;DHT22;34318;45.818;15.964;2022-09-09T04:35:53;25.20;79.60
43997;DHT22;34318;45.818;15.964;2022-09-09T04:38:22;25.10;79.80
43997;DHT22;34318;45.818;15.964;2022-09-09T04:40:51;25.00;80.50
43997;DHT22;34318;45.818;15.964;2022-09-09T04:43:19;25.10;80.40
43997;DHT22;34318;45.818;15.964;2022-09-09T04:45:49;25.00;80.70
43997;DHT22;34318;45.818;15.964;2022-09-09T04:48:19;25.00;79.70
43997;DHT22;34318;45.818;15.964;2022-09-09T04:51:03;25.10;79.10
43997;DHT22;34318;45.818;15.964;2022-09-09T04:53:32;25.20;78.50
43997;DHT22;34318;45.818;15.964;2022-09-09T04:56:05;25.10;78.30
43997;DHT22;34318;45.818;15.964;2022-09-09T04:58:33;25.20;77.50
43997;DHT22;34318;45.818;15.964;2022-09-09T05:01:08;25.10;77.70
43997;DHT22;34318;45.818;15.964;2022-09-09T05:03:35;25.20;75.80
43997;DHT22;34318;45.818;15.964;2022-09-09T05:06:08;25.20;74.00
43997;DHT22;34318;45.818;15.964;2022-09-09T05:08:37;25.10;73.80
43997;DHT22;34318;45.818;15.964;2022-09-09T05:11:31;25.00;72.70
43997;DHT22;34318;45.818;15.964;2022-09-09T05:13:58;25.00;72.00
43997;DHT22;34318;45.818;15.964;2022-09-09T05:16:25;25.00;70.30
43997;DHT22;34318;45.818;15.964;2022-09-09T05:18:53;24.90;70.80
43997;DHT22;34318;45.818;15.964;2022-09-09T05:21:22;24.70;71.30
43997;DHT22;34318;45.818;15.964;2022-09-09T05:23:50;24.80;70.30
43997;DHT22;34318;45.818;15.964;2022-09-09T05:26:20;24.90;70.50
43997;DHT22;34318;45.818;15.964;2022-09-09T05:28:46;24.80;70.40
43997;DHT22;34318;45.818;15.964;2022-09-09T05:31:15;24.90;70.00
43997;DHT22;34318;45.818;15.964;2022-09-09T05:33:44;24.90;69.90
43997;DHT22;34318;45.818;15.964;2022-09-09T05:36:15;25.00;69.80
43997;DHT22;34318;45.818;15.964;2022-09-09T05:38:43;25.00;70.10
43997;DHT22;34318;45.818;15.964;2022-09-09T05:41:12;25.00;70.20
43997;DHT22;34318;45.818;15.964;2022-09-09T05:43:39;24.80;71.30
43997;DHT22;34318;45.818;15.964;2022-09-09T05:46:11;24.70;71.60
43997;DHT22;34318;45.818;15.964;2022-09-09T05:48:43;24.80;71.60
43997;DHT22;34318;45.818;15.964;2022-09-09T05:51:13;24.70;72.00
43997;DHT22;34318;45.818;15.964;2022-09-09T05:53:45;24.70;72.50
43997;DHT22;34318;45.818;15.964;2022-09-09T05:56:15;24.70;72.50
43997;DHT22;34318;45.818;15.964;2022-09-09T05:58:42;24.80;71.80
43997;DHT22;34318;45.818;15.964;2022-09-09T06:03:43;24.80;72.10
43997;DHT22;34318;45.818;15.964;2022-09-09T06:06:13;24.90;72.30
43997;DHT22;34318;45.818;15.964;2022-09-09T06:08:42;24.80;73.10
43997;DHT22;34318;45.818;15.964;2022-09-09T06:11:15;24.80;72.90
43997;DHT22;34318;45.818;15.964;2022-09-09T06:13:43;24.80;72.70
43997;DHT22;34318;45.818;15.964;2022-09-09T06:16:16;24.80;72.50
43997;DHT22;34318;45.818;15.964;2022-09-09T06:18:44;24.80;73.10
43997;DHT22;34318;45.818;15.964;2022-09-09T06:21:19;24.70;73.70
43997;DHT22;34318;45.818;15.964;2022-09-09T06:23:46;24.70;73.60
43997;DHT22;34318;45.818;15.964;2022-09-09T06:26:24;24.60;74.00
43997;DHT22;34318;45.818;15.964;2022-09-09T06:28:53;24.60;73.40
43997;DHT22;34318;45.818;15.964;2022-09-09T06:31:22;24.90;71.50
43997;DHT22;34318;45.818;15.964;2022-09-09T06:33:55;24.90;71.20
43997;DHT22;34318;45.818;15.964;2022-09-09T06:36:24;24.80;70.80
43997;DHT22;34318;45.818;15.964;2022-09-09T06:38:52;24.90;70.20
43997;DHT22;34318;45.818;15.964;2022-09-09T06:41:20;25.00;69.20
43997;DHT22;34318;45.818;15.964;2022-09-09T06:43:48;24.90;68.80
43997;DHT22;34318;45.818;15.964;2022-09-09T06:46:20;24.90;68.50
43997;DHT22;34318;45.818;15.964;2022-09-09T06:48:50;24.80;68.80
43997;DHT22;34318;45.818;15.964;2022-09-09T06:51:21;24.90;68.60
43997;DHT22;34318;45.818;15.964;2022-09-09T06:53:53;25.00;68.20
43997;DHT22;34318;45.818;15.964;2022-09-09T06:56:38;25.10;67.40
43997;DHT22;34318;45.818;15.964;2022-09-09T06:59:07;25.10;66.40
43997;DHT22;34318;45.818;15.964;2022-09-09T07:01:37;25.20;66.60
43997;DHT22;34318;45.818;15.964;2022-09-09T07:04:05;25.30;66.40
43997;DHT22;34318;45.818;15.964;2022-09-09T07:06:36;25.20;66.80
43997;DHT22;34318;45.818;15.964;2022-09-09T07:09:09;25.40;66.00
43997;DHT22;34318;45.818;15.964;2022-09-09T07:11:43;25.30;66.50
43997;DHT22;34318;45.818;15.964;2022-09-09T07:14:11;25.40;66.30
43997;DHT22;34318;45.818;15.964;2022-09-09T07:16:41;25.30;66.20
43997;DHT22;34318;45.818;15.964;2022-09-09T07:19:09;25.30;66.20
43997;DHT22;34318;45.818;15.964;2022-09-09T07:21:35;25.20;66.00
43997;DHT22;34318;45.818;15.964;2022-09-09T07:24:03;25.30;65.90
43997;DHT22;34318;45.818;15.964;2022-09-09T07:26:34;25.20;66.10
43997;DHT22;34318;45.818;15.964;2022-09-09T07:29:02;25.30;65.90
43997;DHT22;34318;45.818;15.964;2022-09-09T07:31:31;25.30;65.80
43997;DHT22;34318;45.818;15.964;2022-09-09T07:33:59;25.20;65.80
43997;DHT22;34318;45.818;15.964;2022-09-09T07:36:32;25.20;65.70
43997;DHT22;34318;45.818;15.964;2022-09-09T07:39:02;25.30;65.40
43997;DHT22;34318;45.818;15.964;2022-09-09T07:41:41;25.20;65.20
43997;DHT22;34318;45.818;15.964;2022-09-09T07:44:15;25.30;64.70
43997;DHT22;34318;45.818;15.964;2022-09-09T07:46:43;25.20;65.30
43997;DHT22;34318;45.818;15.964;2022-09-09T07:49:12;25.20;65.30
43997;DHT22;34318;45.818;15.964;2022-09-09T07:51:43;25.30;64.70
43997;DHT22;34318;45.818;15.964;2022-09-09T07:54:13;25.40;64.50
43997;DHT22;34318;45.818;15.964;2022-09-09T07:56:42;25.30;64.10
43997;DHT22;34318;45.818;15.964;2022-09-09T07:59:09;25.40;64.20
43997;DHT22;34318;45.818;15.964;2022-09-09T08:01:42;25.40;64.40
43997;DHT22;34318;45.818;15.964;2022-09-09T08:04:15;25.50;64.00
43997;DHT22;34318;45.818;15.964;2022-09-09T08:06:57;25.50;63.60
43997;DHT22;34318;45.818;15.964;2022-09-09T08:09:26;25.50;63.30
43997;DHT22;34318;45.818;15.964;2022-09-09T08:11:56;25.50;63.90
43997;DHT22;34318;45.818;15.964;2022-09-09T08:14:25;25.70;63.50
43997;DHT22;34318;45.818;15.964;2022-09-09T08:16:52;25.70;62.80
43997;DHT22;34318;45.818;15.964;2022-09-09T08:19:21;25.70;62.40
43997;DHT22;34318;45.818;15.964;2022-09-09T08:21:47;25.70;62.30
43997;DHT22;34318;45.818;15.964;2022-09-09T08:24:15;25.70;63.20
43997;DHT22;34318;45.818;15.964;2022-09-09T08:26:47;25.80;62.10
43997;DHT22;34318;45.818;15.964;2022-09-09T08:29:16;25.90;62.10
43997;DHT22;34318;45.818;15.964;2022-09-09T08:31:46;25.90;61.70
43997;DHT22;34318;45.818;15.964;2022-09-09T08:34:14;25.90;61.50
43997;DHT22;34318;45.818;15.964;2022-09-09T08:36:43;26.00;61.80
43997;DHT22;34318;45.818;15.964;2022-09-09T08:39:13;26.00;61.80
43997;DHT22;34318;45.818;15.964;2022-09-09T08:50:19;26.10;61.80
43997;DHT22;34318;45.818;15.964;2022-09-09T08:53:04;26.10;61.60
43997;DHT22;34318;45.818;15.964;2022-09-09T08:55:56;26.20;60.20
43997;DHT22;34318;45.818;15.964;2022-09-09T08:58:26;26.30;60.50
43997;DHT22;34318;45.818;15.964;2022-09-09T09:09:05;26.10;60.90
43997;DHT22;34318;45.818;15.964;2022-09-09T09:11:38;26.10;60.60
43997;DHT22;34318;45.818;15.964;2022-09-09T09:17:03;26.20;60.30
43997;DHT22;34318;45.818;15.964;2022-09-09T09:19:33;26.20;60.20
43997;DHT22;34318;45.818;15.964;2022-09-09T09:27:18;26.00;60.30
43997;DHT22;34318;45.818;15.964;2022-09-09T09:29:48;26.00;60.90
43997;DHT22;34318;45.818;15.964;2022-09-09T09:32:40;26.00;61.10
43997;DHT22;34318;45.818;15.964;2022-09-09T09:35:12;26.00;60.60
43997;DHT22;34318;45.818;15.964;2022-09-09T09:37:40;26.10;61.50
43997;DHT22;34318;45.818;15.964;2022-09-09T09:40:27;26.10;60.80
43997;DHT22;34318;45.818;15.964;2022-09-09T09:43:01;26.20;60.50
43997;DHT22;34318;45.818;15.964;2022-09-09T09:45:44;26.30;57.80
43997;DHT22;34318;45.818;15.964;2022-09-09T09:48:27;26.30;60.00
43997;DHT22;34318;45.818;15.964;2022-09-09T09:51:07;26.20;60.40
43997;DHT22;34318;45.818;15.964;2022-09-09T09:53:36;26.20;59.50
43997;DHT22;34318;45.818;15.964;2022-09-09T09:56:09;26.20;61.20
43997;DHT22;34318;45.818;15.964;2022-09-09T10:01:26;26.30;60.70
43997;DHT22;34318;45.818;15.964;2022-09-09T10:03:59;26.20;60.40
43997;DHT22;34318;45.818;15.964;2022-09-09T10:06:35;26.30;59.10
43997;DHT22;34318;45.818;15.964;2022-09-09T10:09:03;26.20;59.70
43997;DHT22;34318;45.818;15.964;2022-09-09T10:11:43;26.20;59.90
43997;DHT22;34318;45.818;15.964;2022-09-09T10:19:33;26.20;60.20
43997;DHT22;34318;45.818;15.964;2022-09-09T10:36:24;26.10;59.90
43997;DHT22;34318;45.818;15.964;2022-09-09T10:38:58;26.00;60.00
43997;DHT22;34318;45.818;15.964;2022-09-09T10:41:42;26.00;59.50
43997;DHT22;34318;45.818;15.964;2022-09-09T10:50:50;26.00;59.30
43997;DHT22;34318;45.818;15.964;2022-09-09T10:53:14;26.00;59.40
43997;DHT22;34318;45.818;15.964;2022-09-09T10:55:52;26.00;59.40
43997;DHT22;34318;45.818;15.964;2022-09-09T11:01:22;26.00;59.60
43997;DHT22;34318;45.818;15.964;2022-09-09T11:03:58;26.00;59.20
43997;DHT22;34318;45.818;15.964;2022-09-09T11:06:36;26.00;59.00
43997;DHT22;34318;45.818;15.964;2022-09-09T11:09:04;26.00;59.10
43997;DHT22;34318;45.818;15.964;2022-09-09T11:11:55;26.00;58.80
43997;DHT22;34318;45.818;15.964;2022-09-09T11:16:59;25.90;58.60
43997;DHT22;34318;45.818;15.964;2022-09-09T11:19:39;26.00;58.30
43997;DHT22;34318;45.818;15.964;2022-09-09T11:25:00;25.90;58.20
43997;DHT22;34318;45.818;15.964;2022-09-09T11:27:29;26.00;57.10
43997;DHT22;34318;45.818;15.964;2022-09-09T11:41:09;26.00;59.70
43997;DHT22;34318;45.818;15.964;2022-09-09T11:43:47;25.90;59.80
43997;DHT22;34318;45.818;15.964;2022-09-09T11:46:18;25.90;59.50
43997;DHT22;34318;45.818;15.964;2022-09-09T11:49:00;25.90;60.60
43997;DHT22;34318;45.818;15.964;2022-09-09T11:51:30;25.90;59.80
43997;DHT22;34318;45.818;15.964;2022-09-09T11:54:02;25.90;59.80
43997;DHT22;34318;45.818;15.964;2022-09-09T11:56:42;25.90;59.70
43997;DHT22;34318;45.818;15.964;2022-09-09T12:02:14;25.90;59.80
43997;DHT22;34318;45.818;15.964;2022-09-09T12:05:07;25.90;59.70
43997;DHT22;34318;45.818;15.964;2022-09-09T12:07:37;25.90;59.60
43997;DHT22;34318;45.818;15.964;2022-09-09T12:10:32;25.90;59.80
43997;DHT22;34318;45.818;15.964;2022-09-09T12:15:56;25.80;60.10
43997;DHT22;34318;45.818;15.964;2022-09-09T12:18:31;25.80;60.40
43997;DHT22;34318;45.818;15.964;2022-09-09T12:23:53;25.80;61.10
43997;DHT22;34318;45.818;15.964;2022-09-09T12:40:18;25.90;62.00
43997;DHT22;34318;45.818;15.964;2022-09-09T12:42:46;25.90;62.40
43997;DHT22;34318;45.818;15.964;2022-09-09T12:45:21;25.90;63.90
43997;DHT22;34318;45.818;15.964;2022-09-09T12:47:54;25.80;66.40
43997;DHT22;34318;45.818;15.964;2022-09-09T12:50:24;25.90;68.50
43997;DHT22;34318;45.818;15.964;2022-09-09T12:52:58;25.90;68.70
43997;DHT22;34318;45.818;15.964;2022-09-09T12:55:29;25.80;68.60
43997;DHT22;34318;45.818;15.964;2022-09-09T12:57:57;25.80;68.90
43997;DHT22;34318;45.818;15.964;2022-09-09T13:00:26;25.80;68.80
43997;DHT22;34318;45.818;15.964;2022-09-09T13:02:55;25.80;69.50
43997;DHT22;34318;45.818;15.964;2022-09-09T13:05:25;25.80;69.30
43997;DHT22;34318;45.818;15.964;2022-09-09T13:08:04;25.80;68.70
43997;DHT22;34318;45.818;15.964;2022-09-09T13:10:35;25.80;69.40
43997;DHT22;34318;45.818;15.964;2022-09-09T13:13:31;25.80;69.90
43997;DHT22;34318;45.818;15.964;2022-09-09T13:16:01;25.80;69.50
43997;DHT22;34318;45.818;15.964;2022-09-09T13:18:36;25.80;70.00
43997;DHT22;34318;45.818;15.964;2022-09-09T13:21:04;25.80;69.90
43997;DHT22;34318;45.818;15.964;2022-09-09T13:23:36;25.80;70.20
43997;DHT22;34318;45.818;15.964;2022-09-09T13:26:23;25.70;69.70
43997;DHT22;34318;45.818;15.964;2022-09-09T13:28:52;25.70;69.70
43997;DHT22;34318;45.818;15.964;2022-09-09T13:31:30;25.80;69.40
43997;DHT22;34318;45.818;15.964;2022-09-09T13:33:59;25.70;69.70
43997;DHT22;34318;45.818;15.964;2022-09-09T13:36:31;25.70;70.20
43997;DHT22;34318;45.818;15.964;2022-09-09T13:38:59;25.70;71.00
43997;DHT22;34318;45.818;15.964;2022-09-09T13:41:42;25.70;71.60
43997;DHT22;34318;45.818;15.964;2022-09-09T13:44:28;25.70;72.30
43997;DHT22;34318;45.818;15.964;2022-09-09T13:49:36;25.70;75.30
43997;DHT22;34318;45.818;15.964;2022-09-09T13:52:10;25.70;76.80
43997;DHT22;34318;45.818;15.964;2022-09-09T13:54:38;25.70;74.10
43997;DHT22;34318;45.818;15.964;2022-09-09T13:57:23;25.80;74.50
43997;DHT22;34318;45.818;15.964;2022-09-09T13:59:53;25.80;74.80
43997;DHT22;34318;45.818;15.964;2022-09-09T14:02:36;25.80;74.00
43997;DHT22;34318;45.818;15.964;2022-09-09T14:05:05;25.80;74.40
43997;DHT22;34318;45.818;15.964;2022-09-09T14:07:32;25.80;74.40
43997;DHT22;34318;45.818;15.964;2022-09-09T14:09:59;25.80;74.70
43997;DHT22;34318;45.818;15.964;2022-09-09T14:12:27;25.80;74.10
43997;DHT22;34318;45.818;15.964;2022-09-09T14:14:53;25.80;73.70
43997;DHT22;34318;45.818;15.964;2022-09-09T14:17:20;25.80;73.00
43997;DHT22;34318;45.818;15.964;2022-09-09T14:19:48;25.80;73.60
43997;DHT22;34318;45.818;15.964;2022-09-09T14:22:15;25.80;73.90
43997;DHT22;34318;45.818;15.964;2022-09-09T14:24:42;25.80;73.80
43997;DHT22;34318;45.818;15.964;2022-09-09T14:27:09;25.80;73.50
43997;DHT22;34318;45.818;15.964;2022-09-09T14:29:36;25.80;73.10
43997;DHT22;34318;45.818;15.964;2022-09-09T14:32:04;25.80;74.30
43997;DHT22;34318;45.818;15.964;2022-09-09T14:34:38;25.80;73.80
43997;DHT22;34318;45.818;15.964;2022-09-09T14:37:04;25.80;74.10
43997;DHT22;34318;45.818;15.964;2022-09-09T14:39:31;25.80;74.00
43997;DHT22;34318;45.818;15.964;2022-09-09T14:41:58;25.70;74.40
43997;DHT22;34318;45.818;15.964;2022-09-09T14:44:25;25.80;75.30
43997;DHT22;34318;45.818;15.964;2022-09-09T14:46:53;25.80;74.10
43997;DHT22;34318;45.818;15.964;2022-09-09T14:49:21;25.70;73.60
43997;DHT22;34318;45.818;15.964;2022-09-09T14:51:48;25.70;73.20
43997;DHT22;34318;45.818;15.964;2022-09-09T14:54:15;25.70;73.00
43997;DHT22;34318;45.818;15.964;2022-09-09T14:56:42;25.70;73.00
43997;DHT22;34318;45.818;15.964;2022-09-09T14:59:09;25.70;73.10
43997;DHT22;34318;45.818;15.964;2022-09-09T15:01:36;25.70;73.30
43997;DHT22;34318;45.818;15.964;2022-09-09T15:04:05;25.70;73.70
43997;DHT22;34318;45.818;15.964;2022-09-09T15:06:34;25.70;74.70
43997;DHT22;34318;45.818;15.964;2022-09-09T15:09:03;25.70;74.20
43997;DHT22;34318;45.818;15.964;2022-09-09T15:11:32;25.70;74.80
43997;DHT22;34318;45.818;15.964;2022-09-09T15:14:01;25.70;74.40
43997;DHT22;34318;45.818;15.964;2022-09-09T15:16:28;25.70;75.00
43997;DHT22;34318;45.818;15.964;2022-09-09T15:18:57;25.70;75.20
43997;DHT22;34318;45.818;15.964;2022-09-09T15:21:26;25.80;75.60
43997;DHT22;34318;45.818;15.964;2022-09-09T15:23:54;25.70;76.30
43997;DHT22;34318;45.818;15.964;2022-09-09T15:26:22;25.70;76.20
43997;DHT22;34318;45.818;15.964;2022-09-09T15:28:49;25.70;76.40
43997;DHT22;34318;45.818;15.964;2022-09-09T15:31:22;25.70;76.50
43997;DHT22;34318;45.818;15.964;2022-09-09T15:33:55;25.70;76.80
43997;DHT22;34318;45.818;15.964;2022-09-09T15:36:35;25.70;77.30
43997;DHT22;34318;45.818;15.964;2022-09-09T15:39:05;25.70;76.40
43997;DHT22;34318;45.818;15.964;2022-09-09T15:41:32;25.80;76.00
43997;DHT22;34318;45.818;15.964;2022-09-09T15:44:00;25.80;76.30
43997;DHT22;34318;45.818;15.964;2022-09-09T15:46:40;25.80;76.20
43997;DHT22;34318;45.818;15.964;2022-09-09T15:49:16;25.70;76.60
43997;DHT22;34318;45.818;15.964;2022-09-09T15:51:59;25.70;76.90
43997;DHT22;34318;45.818;15.964;2022-09-09T15:54:35;25.70;76.30
43997;DHT22;34318;45.818;15.964;2022-09-09T15:57:04;25.70;75.40
43997;DHT22;34318;45.818;15.964;2022-09-09T15:59:31;25.70;74.90
43997;DHT22;34318;45.818;15.964;2022-09-09T16:01:59;25.70;74.60
43997;DHT22;34318;45.818;15.964;2022-09-09T16:04:27;25.60;74.00
43997;DHT22;34318;45.818;15.964;2022-09-09T16:07:00;25.70;72.40
43997;DHT22;34318;45.818;15.964;2022-09-09T16:09:28;25.60;71.00
43997;DHT22;34318;45.818;15.964;2022-09-09T16:11:57;25.60;69.80
43997;DHT22;34318;45.818;15.964;2022-09-09T16:14:25;25.60;69.60
43997;DHT22;34318;45.818;15.964;2022-09-09T16:16:52;25.60;69.70
43997;DHT22;34318;45.818;15.964;2022-09-09T16:19:20;25.60;69.20
43997;DHT22;34318;45.818;15.964;2022-09-09T16:21:48;25.70;69.20
43997;DHT22;34318;45.818;15.964;2022-09-09T16:24:19;25.60;69.30
43997;DHT22;34318;45.818;15.964;2022-09-09T16:26:48;25.70;68.90
43997;DHT22;34318;45.818;15.964;2022-09-09T16:29:17;25.80;68.50
43997;DHT22;34318;45.818;15.964;2022-09-09T16:31:45;25.70;68.50
43997;DHT22;34318;45.818;15.964;2022-09-09T16:34:15;25.70;68.30
43997;DHT22;34318;45.818;15.964;2022-09-09T16:36:43;25.60;68.30
43997;DHT22;34318;45.818;15.964;2022-09-09T16:39:12;25.60;68.70
43997;DHT22;34318;45.818;15.964;2022-09-09T16:41:41;25.50;69.00
43997;DHT22;34318;45.818;15.964;2022-09-09T16:44:11;25.50;69.30
43997;DHT22;34318;45.818;15.964;2022-09-09T16:46:44;25.50;69.10
43997;DHT22;34318;45.818;15.964;2022-09-09T16:49:14;25.50;70.20
43997;DHT22;34318;45.818;15.964;2022-09-09T16:51:48;25.70;69.20
43997;DHT22;34318;45.818;15.964;2022-09-09T16:54:23;25.60;70.20
43997;DHT22;34318;45.818;15.964;2022-09-09T16:56:58;25.70;69.00
43997;DHT22;34318;45.818;15.964;2022-09-09T16:59:29;25.60;69.10
43997;DHT22;34318;45.818;15.964;2022-09-09T17:01:56;25.60;69.00
43997;DHT22;34318;45.818;15.964;2022-09-09T17:04:27;25.60;69.00
43997;DHT22;34318;45.818;15.964;2022-09-09T17:06:56;25.70;68.50
43997;DHT22;34318;45.818;15.964;2022-09-09T17:09:25;25.70;68.40
43997;DHT22;34318;45.818;15.964;2022-09-09T17:11:56;25.70;69.00
43997;DHT22;34318;45.818;15.964;2022-09-09T17:14:23;25.70;69.50
43997;DHT22;34318;45.818;15.964;2022-09-09T17:16:50;25.60;70.10
43997;DHT22;34318;45.818;15.964;2022-09-09T17:19:17;25.50;70.70
43997;DHT22;34318;45.818;15.964;2022-09-09T17:21:45;25.60;70.30
43997;DHT22;34318;45.818;15.964;2022-09-09T17:24:36;25.60;69.90
43997;DHT22;34318;45.818;15.964;2022-09-09T17:27:05;25.70;69.90
43997;DHT22;34318;45.818;15.964;2022-09-09T17:29:31;25.60;70.30
43997;DHT22;34318;45.818;15.964;2022-09-09T17:31:58;25.60;70.90
43997;DHT22;34318;45.818;15.964;2022-09-09T17:34:25;25.60;70.00
43997;DHT22;34318;45.818;15.964;2022-09-09T17:36:54;25.60;69.90
43997;DHT22;34318;45.818;15.964;2022-09-09T17:39:21;25.70;69.60
43997;DHT22;34318;45.818;15.964;2022-09-09T17:41:48;25.60;70.00
43997;DHT22;34318;45.818;15.964;2022-09-09T17:44:15;25.50;70.80
43997;DHT22;34318;45.818;15.964;2022-09-09T17:46:42;25.50;70.70
43997;DHT22;34318;45.818;15.964;2022-09-09T17:49:14;25.60;70.10
43997;DHT22;34318;45.818;15.964;2022-09-09T17:51:44;25.60;70.10
43997;DHT22;34318;45.818;15.964;2022-09-09T17:54:14;25.60;70.20
43997;DHT22;34318;45.818;15.964;2022-09-09T17:56:42;25.60;72.00
43997;DHT22;34318;45.818;15.964;2022-09-09T17:59:10;25.50;71.40
43997;DHT22;34318;45.818;15.964;2022-09-09T18:01:41;25.50;71.60
43997;DHT22;34318;45.818;15.964;2022-09-09T18:04:09;25.50;71.30
43997;DHT22;34318;45.818;15.964;2022-09-09T18:06:45;25.50;71.20